EGSS Airport Information

Runway Information
Runway 04 Length 10003 ft width 151 ft
Elevation 324 ft Threshold 0 ft Heading 44
Runway 22 Length 10003 ft Width 151 ft
Elevation 348 ft Threshold 0 ft Heading 224
Airport Frequencies
Type APP Name Essex Rada Frequency 120.625 MHZ
Type ATIS Name ATIS Frequency 127.175 MHZ
Type CLD Name CLNC DEL Frequency 121.95 MHZ
Type DIR Name DIRECTOR Frequency 136.2 MHZ
Type GND Name GND Frequency 121.725 MHZ
Type RDR Name Director Frequency 136.2 MHZ
Type TWR Name TWR Frequency 123.8 MHZ
Airport Navaids
Type VOR-DME Name Barkway Frequency 116250 KHZ
Type NDB Name Stansted Frequency 429 KHZ
Airport Weather Information & NOTAM
ADDS - METARS form results

(1116 UTC 29 May 2020)
Data provider http://aviationweather.gov/metar/data/
 
METAR text: EGSS 291050Z AUTO 09010KT 060V130 9999 NCD 20/02 Q1029
Conditions at: EGSS (STANSTED AIRPORT, GB) observed 1050 UTC 29 May 2020
Temperature: 20.0°C (68°F)
Dewpoint: 2.0°C (36°F) [RH = 30%]
Pressure (altimeter): 30.38 inches Hg (1029.0 mb)
Winds: from the E (90 degrees) at 12 MPH (10 knots; 5.1 m/s)
Visibility: 6 or more miles (10+ km)
Ceiling: at least 12,000 feet AGL
Clouds: sky clear below 12,000 feet AGL
Weather: no significant weather observed at this time

METAR text: EGSS 291020Z AUTO 09009KT 060V130 9999 NCD 19/03 Q1029
Conditions at: EGSS (STANSTED AIRPORT, GB) observed 1020 UTC 29 May 2020
Temperature: 19.0°C (66°F)
Dewpoint: 3.0°C (37°F) [RH = 34%]
Pressure (altimeter): 30.38 inches Hg (1029.0 mb)
Winds: from the E (90 degrees) at 10 MPH (9 knots; 4.6 m/s)
Visibility: 6 or more miles (10+ km)
Ceiling: at least 12,000 feet AGL
Clouds: sky clear below 12,000 feet AGL
Weather: no significant weather observed at this time

Forecast for: EGSS (STANSTED AIRPORT, GB)
Text: TAF EGSS 291101Z 2912/3018 09009KT CAVOK
Forecast period: 1200 UTC 29 May 2020 to 1800 UTC 30 May 2020
Forecast type: FROM: standard forecast or significant change
Winds: from the E (90 degrees) at 10 MPH (9 knots; 4.6 m/s)
Visibility: 6 or more miles 10+ km)
Ceiling: unknown
Clouds: missing
Weather: NSW  (no significant weather)
Text: PROB40 3002/3006 8000 BKN004
Forecast period: 0200 to 0600 UTC 30 May 2020
Forecast type: PROBABLE: 40 percent likelihood of the following during this time
Visibility: 5 miles (8 km)
Ceiling: 400 feet AGL
Clouds: broken clouds at 400 feet AGL
Weather: no significant weather forecast for this period
Text: PROB30
Forecast period: 0600 to 0700 UTC 30 May 2020
Forecast type: TEMPORARY: The following changes expected for less than half the time period
Visibility: missing
Ceiling: 800 feet AGL
Clouds: broken clouds at 800 feet AGL
Weather: no significant weather forecast for this period